Aviation Digital Data Service (ADDS)

Output produced by METARs form (2105 UTC 01 September 2014)
found at http://www.aviationweather.gov/adds/metars/
 
KBFD 012053Z AUTO VRB05KT 10SM SCT027 BKN035 BKN055 24/19 A2998 RMK AO2 SLP135 T02440189 56016
KBFD 012010Z AUTO 19006KT 10SM SCT022 BKN034 OVC050 24/19 A2999 RMK AO2 T02440194
KBFD 011953Z AUTO VRB06KT 10SM SCT022 BKN028 BKN042 25/19 A2999 RMK AO2 SLP137 T02500194
KBFD 011922Z AUTO 23006KT 10SM FEW020 BKN026 OVC055 24/19 A3000 RMK AO2 T02440189
KBFD 011853Z AUTO VRB05KT 10SM SCT018 BKN030 OVC055 24/19 A3001 RMK AO2 SLP145 T02390194
KBFD 011834Z AUTO 18008KT 10SM SCT016 BKN028 OVC050 24/19 A3002 RMK AO2 T02390194
KBFD 011816Z AUTO VRB06KT 10SM FEW016 SCT026 OVC050 24/19 A3002 RMK AO2 T02390194
KBFD 011753Z AUTO 20006KT 10SM BKN018 BKN026 OVC050 23/19 A3003 RMK AO2 SLP153 T02330189 10239 20200 56007
KBFD 011653Z AUTO 19005KT 9SM BKN018 BKN023 OVC047 23/19 A3004 RMK AO2 SLP155 T02330189
KBFD 011553Z AUTO 20008KT 8SM FEW012 BKN019 OVC031 23/19 A3005 RMK AO2 SLP158 T02330194
KBFD 011506Z AUTO 21005KT 8SM FEW008 SCT013 OVC021 22/19 A3006 RMK AO2 T02220189
KBFD 011453Z AUTO 22004KT 7SM SCT008 BKN013 OVC048 22/19 A3005 RMK AO2 SLP161 T02170189 58003
KBFD 011418Z AUTO VRB04KT 7SM BKN008 OVC013 21/19 A3005 RMK AO2 CIG 006V012 T02110189
KBFD 011411Z AUTO 20004KT 7SM SCT008 OVC013 21/19 A3006 RMK AO2 T02110189
KBFD 011353Z AUTO VRB03KT 7SM BKN007 OVC012 21/19 A3006 RMK AO2 CIG 004V010 SLP163 T02110189
KBFD 011253Z AUTO 00000KT 5SM BR BKN005 BKN024 OVC038 20/19 A3006 RMK AO2 CIG 003V007 SLP165 T02000189
KBFD 011248Z AUTO 22003KT 5SM BR SCT005 BKN024 OVC038 20/19 A3006 RMK AO2
KBFD 011218Z AUTO 25004KT 6SM BR SCT004 OVC035 20/19 A3007 RMK AO2 T02000189
KBFD 011205Z AUTO 00000KT 5SM BR BKN004 OVC038 20/19 A3007 RMK AO2 CIG 002V007 T02000189
KBFD 011153Z AUTO 00000KT 5SM BR SCT004 OVC036 20/19 A3007 RMK AO2 SLP166 60000 70057 T02000189 10200 20200 58001
KBFD 011132Z AUTO 00000KT 4SM BR FEW005 OVC035 20/19 A3007 RMK AO2 T02000189
KBFD 011053Z AUTO 00000KT 7SM OVC005 20/19 A3007 RMK AO2 CIG 003V009 SLP168 T02000189
KBFD 010953Z AUTO 00000KT 8SM BKN007 BKN012 OVC032 20/19 A3007 RMK AO2 CIG 005V010 SLP167 T02000189
KBFD 010948Z AUTO 00000KT 8SM BKN007 BKN013 OVC027 20/19 A3007 RMK AO2 CIG 005V010
KBFD 010915Z AUTO 00000KT 9SM SCT006 BKN015 OVC031 20/19 A3006 RMK AO2 T02000189
KBFD 010853Z AUTO 00000KT 6SM BR BKN005 BKN009 OVC013 20/19 A3006 RMK AO2 RAB0758E17 CIG 003V007 SLP164 P0000 60000 T02000189 53003
KBFD 010753Z AUTO 00000KT 7SM BKN007 OVC011 20/19 A3005 RMK AO2 CIG 004V009 SLP160 T02000189
KBFD 010714Z AUTO 00000KT 7SM BKN005 OVC009 20/19 A3005 RMK AO2 CIG 003V007 T02000189
KBFD 010653Z AUTO VRB03KT 6SM BR OVC003 20/19 A3005 RMK AO2 SLP161 T02000189
KBFD 010641Z AUTO 00000KT 6SM BR OVC003 20/19 A3005 RMK AO2 T02000189
KBFD 010612Z AUTO 00000KT 7SM BKN006 OVC010 20/19 A3006 RMK AO2 CIG 002V008 T02000189
KBFD 010553Z AUTO 00000KT 6SM BR OVC004 20/19 A3005 RMK AO2 SLP162 T02000189 10206 20200 58004
KBFD 010533Z AUTO 00000KT 7SM OVC004 20/19 A3006 RMK AO2 T02000189
KBFD 010453Z AUTO 21003KT 7SM OVC005 20/19 A3006 RMK AO2 CIG 003V009 SLP164 T02000189 402280194
KBFD 010412Z AUTO 22004KT 8SM BKN006 BKN011 OVC021 20/19 A3006 RMK AO2 CIG 004V008 T02000189
KBFD 010404Z AUTO 21003KT 7SM SCT008 BKN011 OVC023 20/19 A3006 RMK AO2 T02000189
KBFD 010353Z AUTO 00000KT 8SM FEW006 SCT010 OVC021 20/19 A3006 RMK AO2 SLP164 T02000189
KBFD 010337Z AUTO 00000KT 8SM SCT006 SCT015 OVC021 20/19 A3006 RMK AO2 T02000189
KBFD 010253Z AUTO 22003KT 8SM BKN006 OVC011 20/19 A3006 RMK AO2 CIG 004V007 SLP167 T02000189 50001
KBFD 010153Z AUTO VRB03KT 8SM BKN005 BKN009 OVC015 21/19 A3007 RMK AO2 CIG 003V008 SLP168 T02060189
KBFD 010053Z AUTO 21005KT 8SM BKN005 OVC009 21/19 A3006 RMK AO2 CIG 003V007 SLP165 T02060194
KBFD 312353Z AUTO 00000KT 8SM OVC005 21/19 A3006 RMK AO2 RAE2254 CIG 004V010 SLP166 P0000 60048 T02060189 10228 20200 51005
KBFD 312257Z AUTO VRB03KT 10SM BKN009 BKN032 OVC080 21/19 A3006 RMK AO2 RAE54 P0000 T02060194
KBFD 312253Z AUTO 25003KT 9SM -RA SCT009 BKN050 OVC110 21/19 A3006 RMK AO2 SLP164 P0002 T02060194
KBFD 312234Z AUTO 24004KT 5SM -RA BR SCT009 BKN060 OVC110 21/19 A3006 RMK AO2 P0002 T02060194
KBFD 312210Z AUTO VRB05KT 4SM -RA BR FEW009 BKN029 OVC050 21/19 A3006 RMK AO2 P0002 T02060189
KBFD 312153Z AUTO VRB03KT 3SM -RA BR SCT024 BKN045 OVC110 21/19 A3006 RMK AO2 SLP163 P0045 T02060194
KBFD 312139Z AUTO VRB04KT 3SM RA BR SCT032 BKN065 OVC110 20/19 A3006 RMK AO2 P0043 T02000189
KBFD 312129Z AUTO VRB03KT 1SM +RA BR FEW013 BKN032 OVC070 20/19 A3005 RMK AO2 P0041 T02000189
KBFD 312111Z AUTO 22008G15KT 1/2SM +RA FG BKN020 BKN034 OVC060 21/19 A3005 RMK AO2 P0024 T02060189
KBFD 312104Z AUTO 24007KT 1SM RA BKN018 BKN034 OVC050 22/19 A3006 RMK AO2 P0012 T02170189
KBFD 312053Z AUTO 20005KT 10SM -RA SCT022 BKN033 BKN044 22/19 A3004 RMK AO2 RAB1958E15B48 SLP158 P0001 60001 T02220189 56009
KBFD 312022Z AUTO VRB04KT 10SM FEW015 SCT024 OVC065 22/20 A3005 RMK AO2 RAB1958E15 P0001 T02220200
KBFD 311953Z AUTO 22007KT 10SM SCT016 BKN024 BKN032 22/18 A3005 RMK AO2 SLP160 T02220183
KBFD 311920Z AUTO 23008KT 200V260 10SM FEW016 SCT026 BKN032 23/19 A3006 RMK AO2 T02280189
KBFD 311853Z AUTO 22007KT 200V270 10SM SCT018 BKN025 BKN120 22/18 A3006 RMK AO2 SLP163 T02220183
KBFD 311801Z AUTO 22004KT 10SM SCT013 BKN024 OVC036 21/19 A3007 RMK AO2 T02110189
KBFD 311753Z AUTO 23005KT 10SM FEW009 BKN013 OVC035 21/19 A3007 RMK AO2 SLP168 60009 T02110189 10211 20194 55003
KBFD 311741Z AUTO 22006KT 10SM SCT009 BKN025 OVC035 21/19 A3007 RMK AO2 T02110189
KBFD 311653Z AUTO 22008KT 10SM BKN009 OVC015 21/19 A3007 RMK AO2 CIG 007V011 SLP165 T02060189
KBFD 311553Z AUTO 21005KT 10SM OVC008 21/19 A3007 RMK AO2 RAE11 CIG 005V012 SLP167 P0000 T02060189
KBFD 311453Z AUTO VRB04KT 6SM -RA BR BKN007 OVC015 20/19 A3008 RMK AO2 SLP172 P0003 60009 T02000189 58003
KBFD 311353Z AUTO VRB04KT 4SM -RA BR BKN006 OVC010 19/18 A3009 RMK AO2 SLP174 P0003 T01940183
KBFD 311313Z AUTO 21004KT 3SM -RA BR SCT006 BKN009 OVC024 19/18 A3008 RMK AO2 P0001 T01940183
KBFD 311307Z AUTO 23004KT 2SM -RA BR FEW004 SCT009 OVC014 19/18 A3009 RMK AO2 P0001 T01940183
KBFD 311253Z AUTO 23003KT 1 3/4SM -RA BR FEW003 BKN007 OVC013 19/18 A3009 RMK AO2 CIG 005V009 SLP173 P0003 T01940183
KBFD 311239Z AUTO 23003KT 2 1/2SM -RA BR SCT007 BKN011 OVC035 19/18 A3009 RMK AO2 P0002 T01940183
KBFD 311229Z AUTO 24003KT 4SM -RA BR SCT009 BKN017 OVC110 19/18 A3009 RMK AO2 P0001 T01940178
KBFD 311211Z AUTO VRB03KT 4SM -RA BR FEW009 SCT037 OVC110 19/18 A3009 RMK AO2 P0001 T01940183
KBFD 311153Z AUTO 23003KT 3SM -RA BR FEW010 SCT060 OVC100 19/18 A3009 RMK AO2 SLP175 P0003 60011 70011 T01940183 10217 20194 50004
KBFD 311053Z AUTO 21004KT 5SM -RA BR FEW085 OVC110 20/18 A3010 RMK AO2 RAB13 SLP174 P0003 T02000183
KBFD 310953Z AUTO 20004KT 5SM BR FEW049 FEW065 OVC090 20/19 A3008 RMK AO2 SLP168 T02000189